createdAt,value
2017-11-08T00:00:28.952Z,34.65
2017-11-08T00:02:57.870Z,33.95
2017-11-08T00:05:26.773Z,36.50
2017-11-08T00:07:55.926Z,34.47
2017-11-08T00:10:25.010Z,31.10
2017-11-08T00:12:55.179Z,31.33
2017-11-08T00:15:24.079Z,32.13
2017-11-08T00:17:55.712Z,31.58
2017-11-08T00:20:24.667Z,32.88
2017-11-08T00:22:53.598Z,32.33
2017-11-08T00:25:22.864Z,32.75
2017-11-08T00:27:54.300Z,33.70
2017-11-08T00:30:23.265Z,33.08
2017-11-08T00:32:53.032Z,35.17
2017-11-08T00:35:21.977Z,33.38
2017-11-08T00:37:51.649Z,33.28
2017-11-08T00:40:21.260Z,34.47
2017-11-08T00:42:50.182Z,34.40
2017-11-08T00:45:19.895Z,30.50
2017-11-08T00:47:49.601Z,30.90
2017-11-08T00:50:19.244Z,31.90
2017-11-08T00:52:50.126Z,29.20
2017-11-08T00:55:20.807Z,31.35
2017-11-08T00:57:54.575Z,29.55
2017-11-08T01:00:28.927Z,29.87
2017-11-08T01:02:57.820Z,29.63
2017-11-08T01:05:26.718Z,27.58
2017-11-08T01:07:55.602Z,27.65
2017-11-08T01:10:25.544Z,27.08
2017-11-08T01:12:54.421Z,27.83
2017-11-08T01:15:23.333Z,27.98
2017-11-08T01:17:52.205Z,28.70
2017-11-08T01:20:21.098Z,27.40
2017-11-08T01:22:50.027Z,25.45
2017-11-08T01:25:18.895Z,26.10
2017-11-08T01:27:47.802Z,28.35
2017-11-08T01:30:16.682Z,28.00
2017-11-08T01:32:48.536Z,29.37
2017-11-08T01:35:17.497Z,28.67
2017-11-08T01:37:47.272Z,29.52
2017-11-08T01:40:19.114Z,27.87
2017-11-08T01:42:48.070Z,28.90
2017-11-08T01:45:16.956Z,29.73
2017-11-08T01:47:45.880Z,27.02
2017-11-08T01:50:15.647Z,27.95
2017-11-08T01:52:45.310Z,30.17
2017-11-08T01:55:14.319Z,29.30
2017-11-08T01:57:44.115Z,28.80
2017-11-08T02:00:13.094Z,28.75
2017-11-08T02:02:42.019Z,28.77
2017-11-08T02:05:11.696Z,30.45
2017-11-08T02:07:40.663Z,30.27
2017-11-08T02:10:09.670Z,29.90
2017-11-08T02:12:38.624Z,29.05
2017-11-08T02:15:07.664Z,31.75
2017-11-08T02:21:13.155Z,30.27
2017-11-08T02:23:42.911Z,29.83
2017-11-08T02:26:11.962Z,32.15
2017-11-08T02:28:42.182Z,29.98
2017-11-08T02:31:15.562Z,31.12
2017-11-08T02:33:44.587Z,29.00
2017-11-08T02:36:13.533Z,30.25
2017-11-08T02:38:42.471Z,29.98
2017-11-08T02:41:11.376Z,28.87
2017-11-08T02:43:40.404Z,30.08
2017-11-08T02:46:09.371Z,28.60
2017-11-08T02:48:38.291Z,29.52
2017-11-08T02:51:08.206Z,31.30
2017-11-08T02:53:37.130Z,32.30
2017-11-08T02:56:06.844Z,29.95
2017-11-08T02:58:36.488Z,30.77
2017-11-08T03:01:05.631Z,32.05
2017-11-08T03:03:39.667Z,30.08
2017-11-08T03:06:12.321Z,29.25
2017-11-08T03:08:41.256Z,29.77
2017-11-08T03:11:10.128Z,29.50
2017-11-08T03:13:39.788Z,28.42
2017-11-08T03:16:08.659Z,31.00
2017-11-08T03:18:37.548Z,29.90
2017-11-08T03:21:06.464Z,29.42
2017-11-08T03:23:35.376Z,30.60
2017-11-08T03:26:04.242Z,34.35
2017-11-08T03:28:33.461Z,32.05
2017-11-08T03:31:02.377Z,31.17
2017-11-08T03:33:31.412Z,29.87
2017-11-08T03:36:00.383Z,30.25
2017-11-08T03:38:29.651Z,30.80
2017-11-08T03:40:59.396Z,29.35
2017-11-08T03:43:28.312Z,31.05
2017-11-08T03:45:58.598Z,30.25
2017-11-08T03:48:27.516Z,31.75
2017-11-08T03:50:56.419Z,30.65
2017-11-08T03:53:26.205Z,31.87
2017-11-08T03:55:55.075Z,31.73
2017-11-08T03:58:24.042Z,32.40
2017-11-08T04:00:53.762Z,33.13
2017-11-08T04:03:23.479Z,32.65
2017-11-08T04:05:52.417Z,31.90
2017-11-08T04:08:21.326Z,33.28
2017-11-08T04:10:50.273Z,33.03
2017-11-08T04:13:19.266Z,32.20
2017-11-08T04:15:48.179Z,31.65
2017-11-08T04:18:17.096Z,30.60
2017-11-08T04:20:46.023Z,31.30
2017-11-08T04:23:14.913Z,34.58
2017-11-08T04:25:43.870Z,32.55
2017-11-08T04:28:12.759Z,33.08
2017-11-08T04:30:41.695Z,30.88
2017-11-08T04:33:10.574Z,33.40
2017-11-08T04:35:40.254Z,33.85
2017-11-08T04:38:09.174Z,33.75
2017-11-08T04:40:39.158Z,34.97
2017-11-08T04:43:08.068Z,34.42
2017-11-08T04:45:41.078Z,35.55
2017-11-08T04:48:10.180Z,32.67
2017-11-08T04:50:39.086Z,34.15
2017-11-08T04:53:08.214Z,32.47
2017-11-08T04:55:37.176Z,34.67
2017-11-08T04:58:06.072Z,35.63
2017-11-08T05:00:35.011Z,38.15
2017-11-08T05:03:04.807Z,37.92
2017-11-08T05:05:33.710Z,38.38
2017-11-08T05:08:03.383Z,38.42
2017-11-08T05:10:32.299Z,38.20
2017-11-08T05:13:01.290Z,36.28
2017-11-08T05:15:30.271Z,36.13
2017-11-08T05:17:59.139Z,36.47
2017-11-08T05:20:28.037Z,39.92
2017-11-08T05:22:57.724Z,36.97
2017-11-08T05:25:26.631Z,37.15
2017-11-08T05:27:59.034Z,34.83
2017-11-08T05:30:27.988Z,36.30
2017-11-08T05:32:56.911Z,36.15
2017-11-08T05:35:25.794Z,37.28
2017-11-08T05:37:55.494Z,36.03
2017-11-08T05:40:25.154Z,36.95
2017-11-08T05:42:54.828Z,36.97
2017-11-08T05:45:23.793Z,40.33
2017-11-08T05:47:52.728Z,38.50
2017-11-08T05:50:22.607Z,37.83
2017-11-08T05:52:51.594Z,38.13
2017-11-08T05:55:20.565Z,36.97
2017-11-08T05:57:49.867Z,34.63
2017-11-08T06:00:18.759Z,34.28
2017-11-08T06:02:47.705Z,39.67
2017-11-08T06:05:16.715Z,38.42
2017-11-08T06:07:45.630Z,38.75
2017-11-08T06:10:15.273Z,39.10
2017-11-08T06:12:44.145Z,37.30
2017-11-08T06:15:13.276Z,38.28
2017-11-08T06:17:42.212Z,38.10
2017-11-08T06:20:11.163Z,39.60
2017-11-08T06:22:40.338Z,38.63
2017-11-08T06:25:09.339Z,35.90
2017-11-08T06:27:40.979Z,35.92
2017-11-08T06:30:09.995Z,34.40
2017-11-08T06:32:39.074Z,35.88
2017-11-08T06:35:08.053Z,34.75
2017-11-08T06:37:37.709Z,33.10
2017-11-08T06:40:07.407Z,33.42
2017-11-08T06:42:36.342Z,32.58
2017-11-08T06:45:05.285Z,33.50
2017-11-08T06:47:34.243Z,33.08
2017-11-08T06:50:03.257Z,35.60
2017-11-08T06:52:32.332Z,39.20
2017-11-08T06:55:01.290Z,36.20
2017-11-08T06:57:30.298Z,36.38
2017-11-08T07:00:00.099Z,36.00
2017-11-08T07:02:30.160Z,36.17
2017-11-08T07:04:59.067Z,36.85
2017-11-08T07:07:28.811Z,36.05
2017-11-08T07:09:57.739Z,38.08
2017-11-08T07:12:26.704Z,38.13
2017-11-08T07:14:56.896Z,42.05
2017-11-08T07:17:31.544Z,39.83
2017-11-08T07:20:00.638Z,39.85
2017-11-08T07:22:30.361Z,37.60
2017-11-08T07:24:59.316Z,39.67
2017-11-08T07:27:29.089Z,37.60
2017-11-08T07:29:57.994Z,36.25
2017-11-08T07:32:27.124Z,36.45
2017-11-08T07:34:56.844Z,36.53
2017-11-08T07:37:26.556Z,34.08
2017-11-08T07:40:02.572Z,36.42
2017-11-08T07:42:31.720Z,34.72
2017-11-08T07:45:00.664Z,31.90
2017-11-08T07:47:30.443Z,37.70
2017-11-08T07:49:59.347Z,35.35
2017-11-08T07:52:28.331Z,31.35
2017-11-08T07:55:10.341Z,36.38
2017-11-08T07:57:39.360Z,36.55
2017-11-08T08:00:08.378Z,37.58
2017-11-08T08:02:37.310Z,37.08
2017-11-08T08:05:06.276Z,39.35
2017-11-08T08:07:37.071Z,37.25
2017-11-08T08:10:07.983Z,42.80
2017-11-08T08:12:37.825Z,42.50
2017-11-08T08:15:06.782Z,45.00
2017-11-08T08:17:36.609Z,43.72
2017-11-08T08:20:08.576Z,45.67
2017-11-08T08:22:37.969Z,45.42
2017-11-08T08:25:07.706Z,47.33
2017-11-08T08:27:37.523Z,49.40
2017-11-08T08:30:07.275Z,50.67
2017-11-08T08:32:36.251Z,47.47
2017-11-08T08:35:05.341Z,46.97
2017-11-08T08:37:35.135Z,47.15
2017-11-08T08:40:04.862Z,47.60
2017-11-08T08:42:34.733Z,49.40
2017-11-08T08:45:04.517Z,47.50
2017-11-08T08:47:33.551Z,48.00
2017-11-08T08:50:02.616Z,52.05
2017-11-08T08:52:31.663Z,47.40
2017-11-08T08:55:01.488Z,48.22
2017-11-08T08:57:31.447Z,48.47
2017-11-08T09:00:00.463Z,47.40
2017-11-08T09:02:32.326Z,43.90
2017-11-08T09:05:16.226Z,44.80
2017-11-08T09:07:45.218Z,47.20
2017-11-08T09:10:14.207Z,47.80
2017-11-08T09:12:43.162Z,46.92
2017-11-08T09:15:13.102Z,47.22
2017-11-08T09:17:42.126Z,49.13
2017-11-08T09:20:11.452Z,47.38
2017-11-08T09:22:45.479Z,45.38
2017-11-08T09:25:14.534Z,44.78
2017-11-08T09:27:54.291Z,45.05
2017-11-08T09:30:23.366Z,47.70
2017-11-08T09:32:53.087Z,50.72
2017-11-08T09:35:24.086Z,52.53
2017-11-08T09:38:13.628Z,51.75
2017-11-08T09:40:44.653Z,51.08
2017-11-08T09:43:19.724Z,55.10
2017-11-08T09:45:49.581Z,51.67
2017-11-08T09:48:18.535Z,51.50
2017-11-08T09:50:54.199Z,51.78
2017-11-08T09:53:23.193Z,47.05
2017-11-08T09:55:52.735Z,49.55
2017-11-08T09:58:22.102Z,50.30
2017-11-08T10:00:57.719Z,53.17
2017-11-08T10:03:27.505Z,54.25
2017-11-08T10:05:56.564Z,54.08
2017-11-08T10:08:25.589Z,53.35
2017-11-08T10:11:00.149Z,53.70
2017-11-08T10:13:30.157Z,54.03
2017-11-08T10:15:59.932Z,54.08
2017-11-08T10:18:29.059Z,51.85
2017-11-08T10:21:00.781Z,54.83
2017-11-08T10:23:29.820Z,53.75
2017-11-08T10:25:59.803Z,52.78
2017-11-08T10:28:28.727Z,55.30
2017-11-08T10:30:58.505Z,53.58
2017-11-08T10:33:27.517Z,54.33
2017-11-08T10:35:57.292Z,56.08
2017-11-08T10:38:27.234Z,52.15
2017-11-08T10:40:56.628Z,51.20
2017-11-08T10:43:25.590Z,52.47
2017-11-08T10:45:54.550Z,48.60
2017-11-08T10:48:33.374Z,55.10
2017-11-08T10:51:03.291Z,52.15
2017-11-08T10:53:32.284Z,53.65
2017-11-08T10:56:01.357Z,55.88
2017-11-08T10:58:30.379Z,57.47
2017-11-08T11:01:00.257Z,54.75
2017-11-08T11:03:29.521Z,53.05
2017-11-08T11:05:59.680Z,52.83
2017-11-08T11:08:31.964Z,55.22
2017-11-08T11:11:01.204Z,51.47
2017-11-08T11:13:30.290Z,53.15
2017-11-08T11:15:59.361Z,53.33
2017-11-08T11:18:28.460Z,55.75
2017-11-08T11:20:57.495Z,56.65
2017-11-08T11:23:27.360Z,53.47
2017-11-08T11:25:56.430Z,55.85
2017-11-08T11:28:25.439Z,54.28
2017-11-08T11:30:55.285Z,56.03
2017-11-08T11:33:24.687Z,57.97
2017-11-08T11:35:54.498Z,52.00
2017-11-08T11:38:29.572Z,57.13
2017-11-08T11:41:00.370Z,55.55
2017-11-08T11:43:29.453Z,61.35
2017-11-08T11:46:02.643Z,59.17
2017-11-08T11:48:32.510Z,52.38
2017-11-08T11:51:07.545Z,56.10
2017-11-08T11:53:37.521Z,55.05
2017-11-08T11:56:06.552Z,57.40
2017-11-08T11:58:36.702Z,56.83
2017-11-08T12:01:06.617Z,46.55
2017-11-08T12:03:35.809Z,55.90
2017-11-08T12:06:05.073Z,53.80
2017-11-08T12:08:34.910Z,52.85
2017-11-08T12:11:10.410Z,56.17
2017-11-08T12:13:39.608Z,54.05
2017-11-08T12:16:10.439Z,50.03
2017-11-08T12:18:45.863Z,50.60
2017-11-08T12:21:22.746Z,47.65
2017-11-08T12:23:51.961Z,49.75
2017-11-08T12:26:21.056Z,48.50
2017-11-08T12:28:50.175Z,48.95
2017-11-08T12:31:19.949Z,47.17
2017-11-08T12:33:51.475Z,51.33
2017-11-08T12:36:21.264Z,50.63
2017-11-08T12:38:53.759Z,49.22
2017-11-08T12:41:23.245Z,49.55
2017-11-08T12:43:59.326Z,46.20
2017-11-08T12:46:28.529Z,48.08
2017-11-08T12:48:57.635Z,48.00
2017-11-08T12:51:27.600Z,48.40
2017-11-08T12:53:56.732Z,44.90
2017-11-08T12:56:26.632Z,49.55
2017-11-08T12:58:56.460Z,49.80
2017-11-08T13:01:26.301Z,51.65
2017-11-08T13:03:56.122Z,48.20
2017-11-08T13:06:25.220Z,50.10
2017-11-08T13:08:54.252Z,48.25
2017-11-08T13:11:29.342Z,48.70
2017-11-08T13:13:58.642Z,49.63
2017-11-08T13:16:28.513Z,48.60
2017-11-08T13:18:58.369Z,52.15
2017-11-08T13:21:27.626Z,49.72
2017-11-08T13:23:57.455Z,47.97
2017-11-08T13:26:27.256Z,44.22
2017-11-08T13:28:56.406Z,46.97
2017-11-08T13:31:25.523Z,42.28
2017-11-08T13:33:55.357Z,44.00
2017-11-08T13:36:25.211Z,45.72
2017-11-08T13:38:54.241Z,46.05
2017-11-08T13:41:23.480Z,43.30
2017-11-08T13:43:53.440Z,43.08
2017-11-08T13:46:22.659Z,46.58
2017-11-08T13:48:53.484Z,46.88
2017-11-08T13:51:22.826Z,48.65
2017-11-08T13:53:52.028Z,44.67
2017-11-08T13:56:21.136Z,46.35
2017-11-08T13:58:50.277Z,45.65
2017-11-08T14:01:21.111Z,46.92
2017-11-08T14:03:50.994Z,47.95
2017-11-08T14:06:20.244Z,46.20
2017-11-08T14:08:50.091Z,43.90
2017-11-08T14:11:19.167Z,49.13
2017-11-08T14:13:51.195Z,46.00
2017-11-08T14:16:20.270Z,46.78
2017-11-08T14:18:50.524Z,45.53
2017-11-08T14:21:19.449Z,48.05
2017-11-08T14:23:50.650Z,47.05
2017-11-08T14:26:20.402Z,49.85
2017-11-08T14:28:49.324Z,46.37
2017-11-08T14:31:18.251Z,47.75
2017-11-08T14:33:48.230Z,47.45
2017-11-08T14:36:19.085Z,44.92
2017-11-08T14:38:49.556Z,48.95
2017-11-08T14:41:18.691Z,51.35
2017-11-08T14:43:47.658Z,45.85
2017-11-08T14:46:16.771Z,46.22
2017-11-08T14:48:45.796Z,46.05
2017-11-08T14:51:14.729Z,44.13
2017-11-08T14:53:43.787Z,44.50
2017-11-08T14:56:12.806Z,48.70
2017-11-08T14:58:42.661Z,47.85
2017-11-08T15:01:11.736Z,49.97
2017-11-08T15:03:40.757Z,50.38
2017-11-08T15:06:10.943Z,49.97
2017-11-08T15:08:45.225Z,48.20
2017-11-08T15:11:22.743Z,50.70
2017-11-08T15:13:52.873Z,46.17
2017-11-08T15:16:29.989Z,45.60
2017-11-08T15:19:03.041Z,47.35
2017-11-08T15:21:32.075Z,50.17
2017-11-08T15:24:06.103Z,51.40
2017-11-08T15:26:43.757Z,51.03
2017-11-08T15:29:12.788Z,49.90
2017-11-08T15:31:42.680Z,50.95
2017-11-08T15:34:12.501Z,52.88
2017-11-08T15:36:41.508Z,49.90
2017-11-08T15:39:10.466Z,53.53
2017-11-08T15:41:39.403Z,53.55
2017-11-08T15:44:08.403Z,53.42
2017-11-08T15:46:43.210Z,52.05
2017-11-08T15:49:23.640Z,53.83
2017-11-08T15:51:52.651Z,55.80
2017-11-08T15:54:27.673Z,51.90
2017-11-08T15:56:56.603Z,46.22
2017-11-08T15:59:28.619Z,47.62
2017-11-08T16:02:01.144Z,47.30
2017-11-08T16:04:37.920Z,48.83
2017-11-08T16:07:06.896Z,47.88
2017-11-08T16:09:35.865Z,48.78
2017-11-08T16:12:04.906Z,50.50
2017-11-08T16:14:34.045Z,49.35
2017-11-08T16:17:04.037Z,49.80
2017-11-08T16:19:41.310Z,52.00
2017-11-08T16:22:10.297Z,55.20
2017-11-08T16:24:39.270Z,54.53
2017-11-08T16:27:08.266Z,52.10
2017-11-08T16:29:37.278Z,53.60
2017-11-08T16:32:07.045Z,53.45
2017-11-08T16:34:36.878Z,53.20
2017-11-08T16:37:05.912Z,50.90
2017-11-08T16:39:35.651Z,48.30
2017-11-08T16:42:04.338Z,47.15
2017-11-08T16:44:33.379Z,49.55
2017-11-08T16:47:03.210Z,49.92
2017-11-08T16:49:33.080Z,46.17
2017-11-08T16:52:02.212Z,48.03
2017-11-08T16:54:36.226Z,47.17
2017-11-08T16:57:16.629Z,46.40
2017-11-08T16:59:51.545Z,46.45
2017-11-08T17:02:20.623Z,45.22
2017-11-08T17:04:54.302Z,45.35
2017-11-08T17:07:23.388Z,45.15
2017-11-08T17:09:52.596Z,45.53
2017-11-08T17:12:24.275Z,45.80
2017-11-08T17:14:55.072Z,46.10
2017-11-08T17:17:27.694Z,44.45
2017-11-08T17:20:01.623Z,45.15
2017-11-08T17:22:32.461Z,43.65
2017-11-08T17:25:01.431Z,46.08
2017-11-08T17:27:30.432Z,47.30
2017-11-08T17:29:59.542Z,46.97
2017-11-08T17:32:28.712Z,46.95
2017-11-08T17:34:59.012Z,45.85
2017-11-08T17:37:30.466Z,47.58
2017-11-08T17:40:00.924Z,44.95
2017-11-08T17:42:29.937Z,43.50
2017-11-08T17:44:58.960Z,47.33
2017-11-08T17:47:35.101Z,46.33
2017-11-08T17:50:04.398Z,46.42
2017-11-08T17:52:37.409Z,47.40
2017-11-08T17:55:06.832Z,45.67
2017-11-08T17:57:37.654Z,45.45
2017-11-08T18:00:06.663Z,46.25
2017-11-08T18:02:36.043Z,47.25
2017-11-08T18:05:05.917Z,51.67
2017-11-08T18:07:34.964Z,48.35
2017-11-08T18:10:07.857Z,47.97
2017-11-08T18:12:48.323Z,48.63
2017-11-08T18:15:29.235Z,48.70
2017-11-08T18:17:58.469Z,47.38
2017-11-08T18:20:28.476Z,50.67
2017-11-08T18:22:57.504Z,49.60
2017-11-08T18:25:30.584Z,49.25
2017-11-08T18:27:59.623Z,50.58
2017-11-08T18:30:31.072Z,50.75
2017-11-08T18:33:00.134Z,48.38
2017-11-08T18:35:33.502Z,50.67
2017-11-08T18:38:08.387Z,48.55
2017-11-08T18:40:38.140Z,50.12
2017-11-08T18:43:09.626Z,53.87
2017-11-08T18:45:39.400Z,54.63
2017-11-08T18:48:08.426Z,55.90
2017-11-08T18:50:38.298Z,56.42
2017-11-08T18:53:07.572Z,55.35
2017-11-08T18:55:37.421Z,60.50
2017-11-08T18:58:23.127Z,54.00
2017-11-08T19:00:53.076Z,55.58
2017-11-08T19:03:22.078Z,53.13
2017-11-08T19:05:51.052Z,54.15
2017-11-08T19:08:20.888Z,54.17
2017-11-08T19:10:49.869Z,60.12
2017-11-08T19:13:18.807Z,57.25
2017-11-08T19:15:47.927Z,63.22
2017-11-08T19:18:16.942Z,66.75
2017-11-08T19:20:45.974Z,61.67
2017-11-08T19:23:14.988Z,63.87
2017-11-08T19:25:43.973Z,64.32
2017-11-08T19:28:13.140Z,61.72
2017-11-08T19:30:42.183Z,61.60
2017-11-08T19:33:12.004Z,65.00
2017-11-08T19:35:48.734Z,65.25
2017-11-08T19:38:17.870Z,70.90
2017-11-08T19:40:47.785Z,68.30
2017-11-08T19:43:16.871Z,65.22
2017-11-08T19:45:45.957Z,64.43
2017-11-08T19:48:15.016Z,68.10
2017-11-08T19:50:44.712Z,66.37
2017-11-08T19:53:13.736Z,67.53
2017-11-08T19:55:42.894Z,64.95
2017-11-08T19:58:17.120Z,73.65
2017-11-08T20:00:46.918Z,70.95
2017-11-08T20:03:16.739Z,64.93
2017-11-08T20:05:46.554Z,67.97
2017-11-08T20:08:15.646Z,66.12
2017-11-08T20:10:44.723Z,64.47
2017-11-08T20:13:22.139Z,65.55
2017-11-08T20:15:51.228Z,68.85
2017-11-08T20:18:20.253Z,71.72
2017-11-08T20:20:49.282Z,70.22
2017-11-08T20:23:19.903Z,66.20
2017-11-08T20:25:49.005Z,66.50
2017-11-08T20:28:18.049Z,67.90
2017-11-08T20:30:47.051Z,68.93
2017-11-08T20:33:16.121Z,65.65
2017-11-08T20:35:45.218Z,63.55
2017-11-08T20:38:14.186Z,62.53
2017-11-08T20:40:44.047Z,61.42
2017-11-08T20:43:13.180Z,61.50
2017-11-08T20:45:42.265Z,62.40
2017-11-08T20:48:11.368Z,57.60
2017-11-08T20:50:40.429Z,59.60
2017-11-08T20:54:12.864Z,61.42
2017-11-08T20:56:43.674Z,60.55
2017-11-08T20:59:12.765Z,60.88
2017-11-08T21:01:41.848Z,63.67
2017-11-08T21:04:10.891Z,61.60
2017-11-08T21:06:40.068Z,68.65
2017-11-08T21:09:09.104Z,65.68
2017-11-08T21:11:38.175Z,64.70
2017-11-08T21:14:08.849Z,71.60
2017-11-08T21:16:38.726Z,64.55
2017-11-08T21:19:07.853Z,73.55
2017-11-08T21:21:37.091Z,66.30
2017-11-08T21:24:06.228Z,61.50
2017-11-08T21:26:35.612Z,65.70
2017-11-08T21:29:05.122Z,63.47
2017-11-08T21:31:35.200Z,62.33
2017-11-08T21:34:04.161Z,63.38
2017-11-08T21:36:33.113Z,62.95
2017-11-08T21:39:03.085Z,64.55
2017-11-08T21:41:32.053Z,66.68
2017-11-08T21:44:00.977Z,64.05
2017-11-08T21:46:30.057Z,71.35
2017-11-08T21:48:58.986Z,69.43
2017-11-08T21:51:28.807Z,69.25
2017-11-08T21:53:58.487Z,70.65
2017-11-08T21:56:27.525Z,69.60
2017-11-08T21:58:57.203Z,66.20
2017-11-08T22:01:26.192Z,62.70
2017-11-08T22:03:55.214Z,59.45
2017-11-08T22:06:24.956Z,61.45
2017-11-08T22:08:54.176Z,60.67
2017-11-08T22:11:23.205Z,59.60
2017-11-08T22:13:52.904Z,62.08
2017-11-08T22:16:22.061Z,61.53
2017-11-08T22:18:51.029Z,63.20
2017-11-08T22:21:19.990Z,66.53
2017-11-08T22:23:48.915Z,69.40
2017-11-08T22:26:18.793Z,66.12
2017-11-08T22:28:47.803Z,70.95
2017-11-08T22:31:17.891Z,66.03
2017-11-08T22:33:47.686Z,65.40
2017-11-08T22:36:16.619Z,65.37
2017-11-08T22:38:46.336Z,65.43
2017-11-08T22:41:16.016Z,63.00
2017-11-08T22:43:45.781Z,60.08
2017-11-08T22:46:14.748Z,64.87
2017-11-08T22:48:43.692Z,59.05
2017-11-08T22:51:12.619Z,59.67
2017-11-08T22:53:42.284Z,62.20
2017-11-08T22:56:11.222Z,65.25
2017-11-08T22:58:40.903Z,65.05
2017-11-08T23:01:09.880Z,65.07
2017-11-08T23:03:38.861Z,62.05
2017-11-08T23:06:07.827Z,65.00
2017-11-08T23:08:36.808Z,64.68
2017-11-08T23:11:06.571Z,67.15
2017-11-08T23:13:35.521Z,64.30
2017-11-08T23:16:04.459Z,66.18
2017-11-08T23:18:33.427Z,66.95
2017-11-08T23:21:02.322Z,67.05
2017-11-08T23:23:31.236Z,70.35
2017-11-08T23:26:00.128Z,65.75
2017-11-08T23:28:29.052Z,66.90
2017-11-08T23:30:58.741Z,70.03
2017-11-08T23:33:27.727Z,63.85
2017-11-08T23:35:56.803Z,67.80
2017-11-08T23:38:26.431Z,64.50
2017-11-08T23:40:55.344Z,64.93
2017-11-08T23:43:25.045Z,60.40
2017-11-08T23:45:53.916Z,59.75
2017-11-08T23:48:25.510Z,60.03
2017-11-08T23:50:55.156Z,60.38
2017-11-08T23:53:24.083Z,58.87
2017-11-08T23:55:55.019Z,59.55
2017-11-08T23:58:23.910Z,57.97
